Latest Weather Observations for Jacup

IDW60801

Issued at 7:02 pm WST Friday 22 May 2015 (issued every 30 minutes, with the page automatically refreshed every 10 minutes)

About weather observations | Map of weather stations | Latest weather observations for WA | Other Formats
Station Details ID: 010905 Name: JACUP Lat: -33.89 Lon: 119.11 Height: 305.0 m
Data from the previous 72 hours. | See also: Recent months at Jacup
Date/Time
WST
Temp
°C
App
Temp
°C
Dew
Point
Rel
Hum
%
Delta-T
°C
Wind Press
QNH
hPa
Press
MSL
hPa
Rain
since 9 am
mm
Dir
 
Spd
km/h
Gust
km/h
Spd
kts
Gust
kts
22/07:00pm 9.0 6.6 7.0 87 0.9 ENE 9 11 5 6 1020.1 1019.8 0.4
22/06:30pm 9.6 6.9 7.2 85 1.2 ENE 11 15 6 8 1020.0 1019.7 0.4
22/06:00pm 10.0 7.7 7.3 83 1.3 E 9 11 5 6 1019.9 1019.6 0.4
22/05:30pm 11.5 9.6 7.6 77 1.9 E 7 11 4 6 1019.8 1019.5 0.4
22/05:00pm 13.5 11.5 8.6 72 2.5 E 9 11 5 6 1019.6 1019.3 0.4
22/04:30pm 14.7 12.6 8.4 66 3.2 ENE 9 13 5 7 1019.6 1019.3 0.4
22/04:00pm 15.3 12.7 7.8 61 3.8 NE 11 15 6 8 1019.5 1019.2 0.4
22/03:30pm 15.5 13.8 8.3 62 3.7 ENE 7 13 4 7 1019.5 1019.2 0.4
22/03:00pm 15.8 14.9 7.8 59 4.1 N 2 7 1 4 1019.7 1019.4 0.4
22/02:30pm 15.7 13.8 7.7 59 4.1 NNE 7 13 4 7 1019.9 1019.6 0.4
22/02:00pm 14.8 12.9 7.6 62 3.6 N 7 13 4 7 1020.2 1019.9 0.4
22/01:30pm 15.4 13.6 7.9 61 3.8 NNW 7 13 4 7 1020.6 1020.3 0.4
22/01:00pm 14.0 11.9 8.4 69 2.8 NW 9 15 5 8 1021.1 1020.8 0.4
22/12:30pm 13.2 11.3 8.9 75 2.2 NNW 9 11 5 6 1021.3 1021.0 0.4
22/12:00pm 11.7 9.3 8.7 82 1.5 NNW 11 17 6 9 1021.8 1021.5 0.4
22/11:30am 12.1 8.0 6.4 68 2.7 N 17 20 9 11 1022.4 1022.1 0.0
22/11:00am 11.8 7.8 6.5 70 2.5 N 17 26 9 14 1023.0 1022.7 0.0
22/10:30am 10.8 6.2 6.4 74 2.1 N 20 28 11 15 1023.2 1022.9 0.0
22/10:00am 10.3 5.4 5.1 70 2.4 N 20 32 11 17 1023.4 1023.1 0.0
22/09:30am 9.7 4.8 5.3 74 2.0 N 20 28 11 15 1023.5 1023.3 0.0
22/09:00am 9.0 3.6 4.6 74 2.0 N 22 30 12 16 1023.6 1023.4 0.0
22/08:30am 8.3 2.8 4.1 75 1.9 N 22 30 12 16 1023.9 1023.7 0.0
22/08:00am 6.4 1.7 3.4 81 1.3 N 17 24 9 13 1023.9 1023.7 0.0
22/07:30am 5.7 1.0 3.0 83 1.1 N 17 22 9 12 1023.9 1023.7 0.0
22/07:00am 5.6 0.9 3.1 84 1.0 N 17 22 9 12 1023.9 1023.7 0.0
22/06:30am 5.4 1.0 2.9 84 1.0 N 15 19 8 10 1023.8 1023.6 0.0
22/06:00am 5.6 0.9 3.1 84 1.0 NNE 17 20 9 11 1023.8 1023.6 0.0
22/05:30am 5.4 0.7 2.9 84 1.0 N 17 20 9 11 1023.9 1023.7 0.0
22/05:00am 6.0 1.7 3.2 82 1.2 NNE 15 20 8 11 1024.0 1023.8 0.0
22/04:30am 6.1 1.8 3.3 82 1.2 NNE 15 20 8 11 1024.1 1023.9 0.0
22/04:00am 6.2 1.9 3.5 83 1.2 NNE 15 19 8 10 1024.2 1024.0 0.0
22/03:30am 6.4 2.5 3.6 82 1.2 NNE 13 19 7 10 1024.6 1024.3 0.0
22/03:00am 6.6 2.0 3.6 81 1.3 NNE 17 20 9 11 1024.8 1024.5 0.0
22/02:30am 6.9 2.3 3.7 80 1.4 NNE 17 20 9 11 1025.0 1024.7 0.0
22/02:00am 7.7 3.5 3.9 77 1.7 NE 15 22 8 12 1025.2 1024.9 0.0
22/01:30am 7.7 3.5 3.7 76 1.7 NE 15 19 8 10 1025.3 1025.0 0.0
22/01:00am 8.0 3.0 3.8 75 1.8 NE 19 26 10 14 1025.3 1025.0 0.0
22/12:30am 7.9 3.3 3.8 75 1.8 NE 17 24 9 13 1025.6 1025.3 0.0
22/12:00am 7.9 3.3 3.8 75 1.8 NE 17 20 9 11 1025.8 1025.5 0.0
 
Date/Time
WST
Temp
°C
App
Temp
°C
Dew
Point
Rel
Hum
%
Delta-T
°C
Wind Press
QNH
hPa
Press
MSL
hPa
Rain
since 9 am
mm
Dir
 
Spd
km/h
Gust
km/h
Spd
kts
Gust
kts
21/11:30pm 6.8 3.0 3.8 81 1.3 ENE 13 15 7 8 1026.0 1025.7 0.0
21/11:00pm 7.0 3.2 3.8 80 1.4 ENE 13 15 7 8 1026.3 1026.1 0.0
21/10:30pm 7.1 2.9 3.7 79 1.5 ENE 15 19 8 10 1026.5 1026.3 0.0
21/10:00pm 6.6 2.3 3.2 79 1.4 NE 15 17 8 9 1026.7 1026.5 0.0
21/09:30pm 6.5 2.5 2.9 78 1.5 NE 13 15 7 8 1026.9 1026.7 0.0
21/09:00pm 5.9 2.3 3.1 82 1.2 NE 11 13 6 7 1027.0 1026.8 0.0
21/08:30pm 6.3 3.1 2.9 79 1.4 ENE 9 11 5 6 1027.0 1026.8 0.0
21/08:00pm 7.6 3.7 3.5 75 1.8 NE 13 15 7 8 1027.0 1026.8 0.0
21/07:30pm 8.2 4.3 3.5 72 2.1 NE 13 19 7 10 1027.1 1026.9 0.0
21/07:00pm 8.9 5.1 3.7 70 2.3 NE 13 17 7 9 1027.1 1026.9 0.0
21/06:30pm 10.0 5.8 4.0 66 2.7 NNE 15 20 8 11 1027.0 1026.8 0.0
21/06:00pm 11.2 7.9 4.7 64 3.0 NE 11 17 6 9 1027.0 1026.8 0.0
21/05:30pm 11.2 8.0 4.9 65 2.9 NE 11 13 6 7 1026.8 1026.6 0.0
21/05:00pm 11.7 7.7 4.9 63 3.1 NNE 15 22 8 12 1026.8 1026.6 0.0
21/04:30pm 12.2 7.8 4.7 60 3.5 NE 17 22 9 12 1026.8 1026.6 0.0
21/04:00pm 12.7 7.8 3.9 55 4.0 NE 19 24 10 13 1026.9 1026.7 0.0
21/03:30pm 12.9 7.8 4.3 56 4.0 NE 20 30 11 16 1027.2 1027.0 0.0
21/03:00pm 13.3 8.5 4.5 55 4.1 NE 19 30 10 16 1027.2 1027.0 0.0
21/02:30pm 13.2 8.2 4.6 56 4.0 NE 20 30 11 16 1027.3 1027.1 0.0
21/02:00pm 13.4 8.3 4.3 54 4.2 NE 20 32 11 17 1027.5 1027.3 0.0
21/01:30pm 13.5 8.1 4.6 55 4.2 NE 22 32 12 17 1028.1 1027.8 0.0
21/01:00pm 13.3 8.5 4.5 55 4.1 NNE 19 26 10 14 1028.3 1028.0 0.0
21/12:30pm 13.2 7.8 4.4 55 4.1 NNE 22 32 12 17 1028.8 1028.5 0.0
21/12:00pm 14.2 9.3 5.0 54 4.3 NE 20 35 11 19 1029.2 1029.0 0.0
21/11:30am 14.0 9.2 5.4 56 4.1 NE 20 28 11 15 1029.6 1029.4 0.0
21/11:00am 13.1 8.0 4.3 55 4.0 NNE 20 33 11 18 1030.2 1030.0 0.0
21/10:30am 13.6 8.3 5.0 56 4.1 NNE 22 32 12 17 1030.5 1030.3 0.0
21/10:00am 12.5 8.8 6.1 65 3.0 NNE 15 24 8 13 1030.9 1030.7 0.0
21/09:30am 10.8 7.5 6.6 75 2.0 N 13 19 7 10 1031.1 1030.9 0.0
21/09:00am 10.8 7.8 6.0 72 2.2 NNE 11 19 6 10 1031.0 1030.8 0.8
21/08:30am 9.4 6.4 5.9 79 1.6 N 11 15 6 8 1031.3 1031.0 0.8
21/08:00am 7.9 4.9 6.0 88 0.9 N 11 15 6 8 1031.0 1030.8 0.8
21/07:30am 6.0 2.8 5.1 94 0.4 N 11 11 6 6 1030.8 1030.6 0.8
21/07:00am 5.2 2.2 4.3 94 0.4 N 9 11 5 6 1030.7 1030.5 0.8
21/06:30am 5.5 2.2 4.5 93 0.4 N 11 13 6 7 1030.7 1030.5 0.8
21/06:00am 6.1 2.9 5.1 93 0.4 N 11 11 6 6 1030.5 1030.3 0.8
21/05:30am 6.6 3.9 5.7 94 0.4 N 9 13 5 7 1030.4 1030.2 0.8
21/05:00am 5.8 2.6 4.9 94 0.4 N 11 11 6 6 1030.3 1030.1 0.8
21/04:30am 5.6 2.7 4.9 95 0.3 N 9 11 5 6 1030.2 1030.0 0.8
21/04:00am 5.2 2.2 4.3 94 0.4 N 9 11 5 6 1030.1 1029.9 0.8
21/03:30am 5.5 2.6 4.6 94 0.4 NNE 9 11 5 6 1030.0 1029.8 0.8
21/03:00am 6.4 3.7 5.5 94 0.4 NNE 9 11 5 6 1030.3 1030.1 0.8
21/02:30am 5.9 3.0 4.9 93 0.4 NNE 9 11 5 6 1030.5 1030.3 0.8
21/02:00am 6.5 3.4 5.5 93 0.4 NNE 11 13 6 7 1030.5 1030.3 0.8
21/01:30am 7.1 4.5 6.0 93 0.5 NNE 9 11 5 6 1030.6 1030.4 0.8
21/01:00am 7.7 4.5 6.8 94 0.4 NE 13 17 7 9 1030.8 1030.6 0.8
21/12:30am 6.1 3.3 5.2 94 0.4 ENE 9 11 5 6 1031.0 1030.8 0.8
21/12:00am 6.7 3.7 6.0 95 0.3 NE 11 13 6 7 1031.0 1030.8 0.8
 
Date/Time
WST
Temp
°C
App
Temp
°C
Dew
Point
Rel
Hum
%
Delta-T
°C
Wind Press
QNH
hPa
Press
MSL
hPa
Rain
since 9 am
mm
Dir
 
Spd
km/h
Gust
km/h
Spd
kts
Gust
kts
20/11:30pm 6.8 4.2 6.1 95 0.3 NE 9 11 5 6 1031.3 1031.0 0.8
20/11:00pm 6.9 4.7 6.2 95 0.3 NE 7 9 4 5 1031.0 1030.8 0.8
20/10:30pm 7.3 4.8 6.6 95 0.3 ENE 9 9 5 5 1031.4 1031.1 0.6
20/10:00pm 8.1 6.1 7.3 95 0.4 ENE 7 7 4 4 1031.6 1031.3 0.6
20/09:30pm 8.6 6.8 7.8 95 0.4 ENE 7 9 4 5 1031.7 1031.4 0.6
20/09:00pm 9.1 7.4 8.5 96 0.3 E 7 9 4 5 1031.7 1031.4 0.6
20/08:30pm 9.0 6.2 8.4 96 0.3 ENE 13 15 7 8 1031.6 1031.3 0.6
20/08:00pm 8.3 5.6 7.5 95 0.4 NE 11 13 6 7 1031.3 1031.0 0.6
20/07:30pm 8.3 6.0 7.4 94 0.4 E 9 13 5 7 1031.1 1030.9 0.6
20/07:00pm 8.3 5.6 7.4 94 0.4 ESE 11 13 6 7 1031.3 1031.0 0.6
20/06:30pm 8.3 6.0 7.4 94 0.4 E 9 13 5 7 1031.0 1030.8 0.6
20/06:00pm 8.5 6.8 7.4 93 0.5 E 6 7 3 4 1030.7 1030.5 0.6
20/05:30pm 9.6 7.2 8.5 93 0.5 E 11 15 6 8 1030.6 1030.4 0.6
20/05:00pm 10.2 6.8 9.0 92 0.6 E 17 20 9 11 1030.5 1030.3 0.6
20/04:30pm 10.4 5.6 9.0 91 0.7 E 24 35 13 19 1030.4 1030.2 0.6
20/04:00pm 11.9 8.7 8.6 80 1.7 ESE 15 19 8 10 1030.3 1030.1 0.4
20/03:30pm 10.7 8.3 8.8 88 1.0 ESE 11 15 6 8 1030.3 1030.1 0.4
20/03:00pm 12.3 9.0 9.7 84 1.3 E 17 32 9 17 1030.3 1030.1 0.2
20/02:30pm 11.9 8.1 8.9 82 1.5 ESE 19 24 10 13 1030.2 1030.0 0.2
20/02:00pm 11.9 7.5 8.9 82 1.5 E 22 30 12 16 1030.1 1029.9 0.2
20/01:30pm 13.1 9.5 8.4 73 2.4 ESE 17 24 9 13 1030.0 1029.8 0.2
20/01:00pm 13.1 9.6 8.8 75 2.2 ESE 17 22 9 12 1030.2 1030.0 0.2
20/12:30pm 12.1 8.5 8.2 77 2.0 E 17 22 9 12 1030.6 1030.4 0.2
20/12:00pm 11.7 7.8 8.6 81 1.5 ESE 19 26 10 14 1030.9 1030.7 0.2
20/11:30am 11.8 9.1 8.8 82 1.5 ENE 13 17 7 9 1031.1 1030.9 0.2
20/11:00am 11.2 8.5 8.8 85 1.2 E 13 17 7 9 1031.5 1031.2 0.2
20/10:30am 10.6 8.4 9.2 91 0.7 ESE 11 13 6 7 1031.9 1031.6 0.2
20/10:00am 10.1 7.2 8.2 88 0.9 SE 13 26 7 14 1031.9 1031.6 0.0
20/09:30am 9.6 8.2 8.7 94 0.4 SSE 6 11 3 6 1031.7 1031.4 0.0
20/09:00am 9.0 8.7 8.5 97 0.2 CALM 0 0 0 0 1031.6 1031.3 0.8
20/08:30am 8.0 7.4 7.6 97 0.2 CALM 0 0 0 0 1031.3 1031.0 0.8
20/08:00am 6.2 5.2 5.8 97 0.2 CALM 0 0 0 0 1031.0 1030.8 0.8
20/07:30am 5.0 2.1 4.6 97 0.2 W 9 11 5 6 1030.6 1030.4 0.8
20/07:00am 4.5 0.7 4.1 97 0.2 W 13 15 7 8 1030.2 1030.0 0.8
20/06:30am 3.8 1.0 3.2 96 0.2 SSW 7 9 4 5 1029.9 1029.7 0.8
20/06:00am 3.7 1.5 3.1 96 0.2 SSW 4 7 2 4 1029.6 1029.4 0.8
20/05:30am 5.0 2.1 4.4 96 0.3 SSW 9 11 5 6 1029.5 1029.3 0.8
20/05:00am 4.9 2.3 4.3 96 0.3 SSW 7 9 4 5 1029.4 1029.2 0.8
20/04:30am 4.4 3.0 3.8 96 0.3 CALM 0 9 0 5 1029.2 1029.0 0.8
20/04:00am 4.6 3.3 4.0 96 0.3 CALM 0 0 0 0 1029.1 1028.9 0.8
20/03:30am 5.7 4.6 5.1 96 0.3 CALM 0 0 0 0 1029.1 1028.9 0.8
20/03:00am 6.2 3.5 5.6 96 0.3 SSW 9 11 5 6 1029.0 1028.7 0.8
20/02:30am 5.8 3.0 5.2 96 0.3 SSW 9 11 5 6 1029.1 1028.9 0.8
20/02:00am 6.3 5.3 5.7 96 0.3 CALM 0 0 0 0 1029.0 1028.7 0.8
20/01:30am 4.8 3.5 3.9 94 0.4 CALM 0 0 0 0 1028.9 1028.6 0.8
20/01:00am 5.4 4.2 4.5 94 0.4 CALM 0 0 0 0 1028.9 1028.6 0.8
20/12:30am 6.7 5.7 5.8 94 0.4 CALM 0 0 0 0 1028.9 1028.6 0.8
20/12:00am 8.1 6.3 7.3 95 0.4 SE 6 9 3 5 1029.0 1028.7 0.8
 
Date/Time
WST
Temp
°C
App
Temp
°C
Dew
Point
Rel
Hum
%
Delta-T
°C
Wind Press
QNH
hPa
Press
MSL
hPa
Rain
since 9 am
mm
Dir
 
Spd
km/h
Gust
km/h
Spd
kts
Gust
kts
19/11:30pm 8.5 5.9 7.6 94 0.4 ESE 11 15 6 8 1029.0 1028.7 0.8
19/11:00pm 8.4 5.4 7.6 95 0.4 ESE 13 17 7 9 1028.8 1028.5 0.8
19/10:30pm 8.3 4.9 7.5 95 0.4 SE 15 24 8 13 1029.0 1028.7 0.4
19/10:00pm 8.4 5.8 7.6 95 0.4 SSE 11 17 6 9 1028.9 1028.6 0.4
19/09:30pm 8.3 6.0 7.5 95 0.4 S 9 15 5 8 1029.0 1028.7 0.4
19/09:00pm 8.4 6.1 7.5 94 0.4 SSE 9 13 5 7 1028.8 1028.5 0.4
19/08:30pm 8.4 6.1 7.6 95 0.4 SSE 9 15 5 8 1028.7 1028.4 0.4
19/08:00pm 8.5 6.3 7.7 95 0.4 SSE 9 13 5 7 1028.6 1028.3 0.4
19/07:30pm 8.7 6.1 7.8 94 0.4 S 11 17 6 9 1028.4 1028.1 0.4

Other Formats:

Comma delimited format used in spreadsheet applications
http://www.bom.gov.au/fwo/IDW60801/IDW60801.95636.axf

JavaScript Object Notation format (JSON) in row-major order
http://www.bom.gov.au/fwo/IDW60801/IDW60801.95636.json